createdAt,value
2018-04-14T00:01:42.651Z,48.13
2018-04-14T00:04:09.742Z,52.70
2018-04-14T00:06:36.133Z,50.93
2018-04-14T00:09:03.251Z,48.97
2018-04-14T00:11:29.629Z,49.97
2018-04-14T00:13:56.722Z,50.43
2018-04-14T00:16:23.043Z,50.30
2018-04-14T00:18:49.421Z,50.20
2018-04-14T00:21:15.750Z,52.53
2018-04-14T00:23:42.076Z,52.63
2018-04-14T00:26:09.225Z,53.30
2018-04-14T00:28:35.589Z,51.97
2018-04-14T00:31:01.984Z,51.80
2018-04-14T00:33:28.346Z,48.67
2018-04-14T00:35:54.671Z,52.33
2018-04-14T00:38:21.748Z,51.83
2018-04-14T00:40:48.135Z,53.77
2018-04-14T00:43:15.210Z,49.90
2018-04-14T00:45:41.875Z,53.30
2018-04-14T00:48:08.220Z,51.77
2018-04-14T00:50:34.653Z,56.20
2018-04-14T00:53:13.316Z,51.73
2018-04-14T00:55:39.660Z,54.07
2018-04-14T00:58:07.926Z,53.87
2018-04-14T01:00:34.307Z,55.43
2018-04-14T01:03:00.699Z,53.97
2018-04-14T01:05:27.077Z,55.67
2018-04-14T01:07:53.438Z,53.30
2018-04-14T01:10:20.508Z,52.73
2018-04-14T01:12:46.911Z,53.93
2018-04-14T01:15:13.222Z,56.30
2018-04-14T01:17:39.602Z,53.30
2018-04-14T01:20:05.989Z,55.57
2018-04-14T01:22:33.081Z,55.17
2018-04-14T01:24:59.505Z,53.47
2018-04-14T01:27:26.596Z,55.87
2018-04-14T01:29:52.915Z,54.33
2018-04-14T01:32:19.304Z,53.93
2018-04-14T01:34:46.361Z,53.90
2018-04-14T01:37:12.796Z,57.20
2018-04-14T01:39:39.895Z,54.60
2018-04-14T01:42:06.237Z,58.03
2018-04-14T01:44:32.616Z,54.00
2018-04-14T01:46:58.954Z,54.17
2018-04-14T01:49:25.360Z,52.57
2018-04-14T01:51:51.706Z,55.80
2018-04-14T01:54:18.083Z,54.33
2018-04-14T01:56:44.420Z,58.60
2018-04-14T01:59:10.725Z,54.57
2018-04-14T02:01:37.090Z,55.87
2018-04-14T02:04:03.414Z,58.17
2018-04-14T02:06:29.794Z,60.00
2018-04-14T02:08:56.158Z,57.90
2018-04-14T02:11:22.531Z,57.30
2018-04-14T02:13:49.707Z,55.73
2018-04-14T02:16:16.212Z,58.87
2018-04-14T02:18:43.286Z,58.13
2018-04-14T02:21:09.654Z,61.87
2018-04-14T02:23:35.975Z,57.30
2018-04-14T02:26:02.353Z,55.80
2018-04-14T02:28:28.656Z,56.97
2018-04-14T02:30:55.042Z,57.60
2018-04-14T02:33:21.423Z,58.77
2018-04-14T02:35:48.514Z,60.93
2018-04-14T02:38:14.904Z,58.97
2018-04-14T02:40:41.240Z,58.87
2018-04-14T02:43:07.596Z,59.27
2018-04-14T02:45:33.989Z,62.27
2018-04-14T02:48:00.328Z,61.07
2018-04-14T02:50:26.705Z,69.60
2018-04-14T02:52:53.763Z,67.93
2018-04-14T02:55:20.086Z,67.53
2018-04-14T02:57:46.470Z,66.97
2018-04-14T03:00:12.861Z,72.80
2018-04-14T03:02:39.192Z,74.33
2018-04-14T03:05:05.604Z,79.97
2018-04-14T03:07:32.686Z,74.07
2018-04-14T03:10:00.114Z,78.30
2018-04-14T03:12:26.595Z,84.63
2018-04-14T03:14:52.906Z,82.83
2018-04-14T03:17:19.353Z,83.73
2018-04-14T03:19:45.669Z,84.47
2018-04-14T03:22:11.974Z,83.93
2018-04-14T03:24:38.345Z,77.20
2018-04-14T03:27:04.677Z,87.20
2018-04-14T03:29:31.046Z,93.83
2018-04-14T03:31:58.143Z,87.60
2018-04-14T03:34:24.501Z,99.83
2018-04-14T03:36:50.879Z,88.17
2018-04-14T03:39:17.208Z,84.00
2018-04-14T03:41:43.630Z,91.73
2018-04-14T03:44:10.022Z,89.97
2018-04-14T03:46:36.393Z,88.37
2018-04-14T03:49:03.535Z,84.93
2018-04-14T03:51:29.907Z,88.87
2018-04-14T03:53:56.289Z,89.00
2018-04-14T03:56:23.353Z,95.53
2018-04-14T03:58:49.739Z,87.37
2018-04-14T04:01:16.047Z,102.67
2018-04-14T04:03:42.439Z,103.87
2018-04-14T04:06:09.513Z,86.77
2018-04-14T04:08:35.828Z,81.77
2018-04-14T04:11:02.214Z,79.50
2018-04-14T04:13:28.518Z,78.63
2018-04-14T04:15:54.880Z,80.60
2018-04-14T04:18:33.436Z,77.70
2018-04-14T04:21:12.092Z,77.43
2018-04-14T04:23:50.854Z,76.27
2018-04-14T04:26:17.159Z,78.37
2018-04-14T04:28:44.166Z,76.57
2018-04-14T04:31:11.409Z,76.13
2018-04-14T04:33:37.691Z,82.33
2018-04-14T04:36:04.683Z,85.53
2018-04-14T04:38:30.965Z,87.03
2018-04-14T04:40:57.270Z,81.50
2018-04-14T04:43:23.681Z,78.50
2018-04-14T04:45:49.921Z,77.00
2018-04-14T04:48:16.166Z,73.57
2018-04-14T04:50:42.463Z,79.73
2018-04-14T04:53:08.699Z,75.60
2018-04-14T04:55:34.949Z,70.37
2018-04-14T04:58:01.258Z,72.60
2018-04-14T05:00:27.606Z,73.97
2018-04-14T05:02:54.634Z,73.70
2018-04-14T05:05:22.438Z,68.73
2018-04-14T05:07:48.709Z,66.17
2018-04-14T05:10:15.005Z,63.07
2018-04-14T05:12:41.266Z,61.70
2018-04-14T05:15:07.518Z,62.90
2018-04-14T05:17:33.820Z,57.70
2018-04-14T05:20:00.079Z,59.80
2018-04-14T05:22:26.409Z,57.10
2018-04-14T05:24:52.713Z,51.93
2018-04-14T05:27:19.039Z,51.87
2018-04-14T05:29:45.289Z,51.87
2018-04-14T05:32:11.546Z,47.77
2018-04-14T05:34:38.572Z,45.40
2018-04-14T05:37:04.833Z,42.07
2018-04-14T05:39:31.882Z,41.73
2018-04-14T05:41:58.939Z,36.03
2018-04-14T05:44:25.280Z,34.20
2018-04-14T05:46:51.573Z,36.07
2018-04-14T05:49:18.646Z,35.40
2018-04-14T05:51:44.961Z,33.80
2018-04-14T05:54:12.012Z,35.00
2018-04-14T05:56:39.056Z,33.60
2018-04-14T05:59:06.041Z,33.70
2018-04-14T06:01:32.522Z,31.73
2018-04-14T06:03:59.540Z,31.10
2018-04-14T06:06:25.791Z,30.50
2018-04-14T06:08:52.854Z,32.17
2018-04-14T06:11:19.843Z,32.10
2018-04-14T06:13:46.101Z,32.97
2018-04-14T06:16:13.906Z,32.57
2018-04-14T06:18:40.191Z,31.20
2018-04-14T06:21:06.423Z,31.23
2018-04-14T06:23:32.705Z,29.90
2018-04-14T06:25:58.970Z,29.57
2018-04-14T06:28:25.260Z,30.00
2018-04-14T06:30:51.538Z,30.37
2018-04-14T06:33:17.785Z,30.30
2018-04-14T06:35:44.861Z,29.03
2018-04-14T06:38:11.115Z,28.77
2018-04-14T06:40:37.417Z,28.47
2018-04-14T06:43:03.673Z,28.97
2018-04-14T06:45:29.937Z,26.37
2018-04-14T06:47:57.008Z,26.77
2018-04-14T06:50:24.003Z,26.80
2018-04-14T06:52:50.286Z,25.83
2018-04-14T06:55:16.531Z,25.90
2018-04-14T06:57:42.833Z,25.27
2018-04-14T07:00:10.077Z,25.13
2018-04-14T07:02:36.385Z,24.93
2018-04-14T07:05:02.731Z,23.53
2018-04-14T07:07:29.773Z,22.70
2018-04-14T07:09:56.091Z,22.47
2018-04-14T07:12:22.378Z,21.30
2018-04-14T07:14:48.617Z,22.17
2018-04-14T07:17:14.921Z,20.93
2018-04-14T07:19:41.205Z,20.00
2018-04-14T07:22:07.499Z,19.33
2018-04-14T07:24:33.798Z,19.27
2018-04-14T07:27:00.063Z,20.00
2018-04-14T07:29:26.366Z,16.87
2018-04-14T07:31:52.622Z,18.10
2018-04-14T07:34:18.942Z,17.13
2018-04-14T07:36:45.202Z,17.80
2018-04-14T07:39:11.496Z,18.93
2018-04-14T07:41:37.748Z,16.63
2018-04-14T07:44:04.051Z,17.70
2018-04-14T07:46:30.338Z,18.23
2018-04-14T07:48:56.581Z,16.50
2018-04-14T07:51:23.610Z,18.17
2018-04-14T07:53:49.854Z,18.23
2018-04-14T07:56:16.896Z,18.23
2018-04-14T07:58:43.922Z,16.90
2018-04-14T08:01:10.235Z,16.60
2018-04-14T08:03:36.500Z,15.77
2018-04-14T08:06:03.514Z,14.57
2018-04-14T08:08:29.814Z,16.90
2018-04-14T08:10:56.055Z,16.10
2018-04-14T08:13:22.364Z,15.10
2018-04-14T08:15:48.658Z,14.80
2018-04-14T08:18:14.970Z,14.30
2018-04-14T08:20:41.223Z,13.27
2018-04-14T08:23:08.233Z,13.97
2018-04-14T08:25:34.526Z,16.27
2018-04-14T08:28:00.768Z,14.03
2018-04-14T08:30:27.057Z,14.83
2018-04-14T08:32:54.070Z,13.77
2018-04-14T08:35:20.379Z,13.70
2018-04-14T08:37:46.648Z,11.90
2018-04-14T08:40:13.001Z,11.40
2018-04-14T08:42:40.037Z,10.33
2018-04-14T08:45:07.059Z,11.00
2018-04-14T08:47:34.129Z,12.37
2018-04-14T08:50:01.130Z,10.63
2018-04-14T08:52:27.433Z,10.33
2018-04-14T08:54:53.721Z,10.30
2018-04-14T08:57:19.966Z,10.83
2018-04-14T08:59:47.019Z,10.70
2018-04-14T09:02:13.338Z,10.37
2018-04-14T09:04:39.646Z,9.90
2018-04-14T09:07:05.894Z,9.40
2018-04-14T09:09:32.935Z,9.53
2018-04-14T09:11:59.217Z,9.20
2018-04-14T09:14:25.530Z,8.70
2018-04-14T09:16:51.806Z,8.70
2018-04-14T09:19:18.189Z,9.50
2018-04-14T09:21:45.260Z,9.03
2018-04-14T09:24:11.645Z,9.03
2018-04-14T09:26:37.966Z,9.47
2018-04-14T09:29:04.295Z,8.00
2018-04-14T09:31:30.704Z,8.77
2018-04-14T09:33:57.015Z,8.50
2018-04-14T09:36:23.380Z,7.90
2018-04-14T09:38:49.730Z,8.57
2018-04-14T09:41:16.121Z,10.60
2018-04-14T09:43:42.441Z,8.43
2018-04-14T09:46:08.834Z,8.60
2018-04-14T09:48:35.143Z,8.70
2018-04-14T09:51:01.483Z,9.57
2018-04-14T09:53:27.900Z,10.10
2018-04-14T09:55:54.246Z,10.00
2018-04-14T09:58:20.657Z,8.80
2018-04-14T10:00:53.030Z,9.63
2018-04-14T10:03:22.462Z,10.70
2018-04-14T10:05:48.834Z,10.40
2018-04-14T10:08:15.192Z,10.03
2018-04-14T10:10:41.592Z,10.33
2018-04-14T10:13:07.987Z,10.87
2018-04-14T10:15:34.404Z,10.80
2018-04-14T10:18:00.772Z,9.50
2018-04-14T10:20:27.237Z,10.03
2018-04-14T10:22:53.546Z,10.83
2018-04-14T10:25:19.860Z,11.23
2018-04-14T10:27:46.988Z,12.37
2018-04-14T10:30:13.336Z,13.50
2018-04-14T10:32:40.439Z,13.50
2018-04-14T10:35:06.771Z,13.50
2018-04-14T10:37:33.172Z,13.50
2018-04-14T10:39:59.516Z,13.17
2018-04-14T10:42:25.894Z,14.00
2018-04-14T10:44:52.230Z,13.47
2018-04-14T10:47:19.351Z,12.90
2018-04-14T10:49:45.691Z,12.90
2018-04-14T10:52:12.073Z,13.40
2018-04-14T10:54:38.459Z,14.67
2018-04-14T10:57:04.847Z,12.13
2018-04-14T10:59:31.204Z,13.40
2018-04-14T11:01:57.605Z,12.97
2018-04-14T11:04:24.002Z,12.70
2018-04-14T11:06:51.093Z,11.40
2018-04-14T11:09:17.473Z,13.13
2018-04-14T11:11:44.612Z,14.63
2018-04-14T11:14:11.007Z,12.80
2018-04-14T11:16:37.385Z,12.27
2018-04-14T11:19:03.711Z,13.13
2018-04-14T11:21:30.057Z,11.00
2018-04-14T11:23:57.168Z,11.27
2018-04-14T11:26:23.573Z,11.63
2018-04-14T11:28:49.975Z,11.70
2018-04-14T11:31:17.126Z,12.57
2018-04-14T11:33:43.575Z,11.37
2018-04-14T11:36:09.899Z,11.03
2018-04-14T11:38:36.219Z,10.63
2018-04-14T11:41:03.359Z,11.53
2018-04-14T11:43:30.427Z,10.00
2018-04-14T11:45:56.778Z,10.87
2018-04-14T11:48:23.168Z,11.27
2018-04-14T11:50:49.541Z,10.90
2018-04-14T11:53:15.874Z,11.20
2018-04-14T11:55:42.204Z,10.90
2018-04-14T11:58:08.818Z,10.57
2018-04-14T12:00:35.191Z,10.90
2018-04-14T12:03:01.574Z,11.30
2018-04-14T12:05:27.967Z,10.93
2018-04-14T12:07:54.310Z,9.13
2018-04-14T12:10:20.681Z,9.67
2018-04-14T12:12:46.998Z,9.80
2018-04-14T12:15:13.406Z,9.57
2018-04-14T12:17:40.507Z,9.10
2018-04-14T12:20:06.893Z,8.77
2018-04-14T12:22:33.349Z,7.83
2018-04-14T12:24:59.728Z,7.10
2018-04-14T12:27:26.098Z,6.93
2018-04-14T12:29:53.161Z,6.90
2018-04-14T12:32:19.539Z,7.17
2018-04-14T12:34:45.869Z,7.07
2018-04-14T12:37:12.277Z,7.13
2018-04-14T12:39:38.609Z,6.50
2018-04-14T12:42:04.999Z,6.90
2018-04-14T12:44:32.090Z,6.33
2018-04-14T12:46:58.461Z,7.23
2018-04-14T12:49:25.551Z,6.40
2018-04-14T12:51:51.917Z,7.77
2018-04-14T12:54:18.218Z,6.90
2018-04-14T12:56:44.589Z,6.07
2018-04-14T12:59:10.983Z,6.60
2018-04-14T13:01:37.300Z,6.80
2018-04-14T13:04:03.687Z,6.30
2018-04-14T13:06:30.036Z,6.47
2018-04-14T13:08:56.412Z,6.13
2018-04-14T13:11:22.747Z,5.90
2018-04-14T13:13:49.129Z,6.73
2018-04-14T13:16:15.856Z,8.90
2018-04-14T13:18:42.205Z,9.43
2018-04-14T13:21:08.581Z,12.23
2018-04-14T13:23:34.915Z,11.87
2018-04-14T13:26:01.318Z,12.80
2018-04-14T13:28:27.718Z,14.90
2018-04-14T13:30:54.797Z,14.87
2018-04-14T13:33:21.225Z,17.70
2018-04-14T13:35:47.563Z,17.53
2018-04-14T13:38:13.887Z,17.40
2018-04-14T13:40:40.278Z,18.67
2018-04-14T13:43:07.419Z,18.83
2018-04-14T13:45:34.546Z,18.80
2018-04-14T13:48:00.870Z,19.93
2018-04-14T13:50:27.239Z,19.30
2018-04-14T13:52:53.591Z,19.40
2018-04-14T13:55:19.944Z,23.90
2018-04-14T13:57:46.297Z,20.37
2018-04-14T14:00:12.836Z,18.70
2018-04-14T14:02:40.013Z,16.37
2018-04-14T14:05:06.339Z,16.83
2018-04-14T14:07:32.729Z,17.43
2018-04-14T14:09:59.115Z,17.30
2018-04-14T14:12:25.509Z,16.73
2018-04-14T14:14:51.873Z,17.60
2018-04-14T14:17:18.274Z,17.63
2018-04-14T14:19:44.597Z,19.40
2018-04-14T14:22:11.738Z,19.87
2018-04-14T14:24:38.195Z,18.77
2018-04-14T14:27:04.519Z,21.63
2018-04-14T14:29:30.907Z,21.93
2018-04-14T14:31:57.230Z,19.73
2018-04-14T14:34:23.585Z,18.93
2018-04-14T14:36:49.966Z,19.53
2018-04-14T14:39:16.315Z,18.00
2018-04-14T14:41:43.423Z,18.43
2018-04-14T14:44:09.776Z,16.50
2018-04-14T14:46:37.008Z,16.77
2018-04-14T14:49:03.374Z,17.37
2018-04-14T14:51:30.477Z,17.17
2018-04-14T14:53:56.808Z,17.50
2018-04-14T14:56:23.148Z,18.60
2018-04-14T14:58:49.480Z,15.70
2018-04-14T15:01:15.852Z,16.30
2018-04-14T15:03:42.911Z,15.80
2018-04-14T15:06:09.309Z,16.37
2018-04-14T15:08:36.409Z,16.43
2018-04-14T15:11:02.791Z,15.97
2018-04-14T15:13:29.382Z,13.37
2018-04-14T15:15:55.696Z,13.43
2018-04-14T15:18:22.072Z,13.73
2018-04-14T15:20:48.397Z,13.13
2018-04-14T15:23:14.798Z,14.13
2018-04-14T15:25:41.161Z,14.20
2018-04-14T15:28:07.523Z,13.47
2018-04-14T15:30:34.638Z,13.60
2018-04-14T15:33:00.992Z,13.13
2018-04-14T15:35:28.111Z,14.20
2018-04-14T15:37:54.422Z,16.23
2018-04-14T15:40:23.367Z,15.90
2018-04-14T15:42:50.477Z,16.47
2018-04-14T15:45:16.789Z,19.07
2018-04-14T15:47:43.152Z,18.20
2018-04-14T15:50:09.612Z,19.20
2018-04-14T15:52:36.841Z,17.30
2018-04-14T15:55:03.931Z,17.70
2018-04-14T15:57:30.260Z,18.70
2018-04-14T15:59:56.642Z,18.27
2018-04-14T16:02:23.169Z,18.13
2018-04-14T16:04:49.510Z,21.23
2018-04-14T16:07:15.859Z,20.50
2018-04-14T16:09:42.980Z,19.53
2018-04-14T16:12:09.313Z,22.83
2018-04-14T16:14:35.709Z,22.50
2018-04-14T16:17:02.063Z,24.20
2018-04-14T16:19:28.414Z,25.03
2018-04-14T16:21:54.799Z,24.60
2018-04-14T16:24:21.113Z,22.47
2018-04-14T16:26:48.176Z,25.77
2018-04-14T16:29:14.525Z,22.57
2018-04-14T16:31:40.893Z,24.03
2018-04-14T16:34:07.256Z,28.17
2018-04-14T16:36:33.591Z,26.33
2018-04-14T16:38:59.979Z,26.50
2018-04-14T16:41:26.361Z,27.40
2018-04-14T16:43:52.702Z,27.40
2018-04-14T16:46:19.080Z,29.63
2018-04-14T16:48:45.430Z,31.17
2018-04-14T16:51:12.493Z,29.07
2018-04-14T16:53:38.874Z,27.17
2018-04-14T16:56:05.220Z,30.80
2018-04-14T16:58:32.285Z,30.20
2018-04-14T17:00:59.403Z,29.70
2018-04-14T17:03:25.709Z,29.47
2018-04-14T17:05:52.053Z,34.83
2018-04-14T17:08:18.434Z,34.60
2018-04-14T17:10:45.521Z,34.17
2018-04-14T17:13:11.906Z,35.83
2018-04-14T17:15:39.002Z,36.63
2018-04-14T17:18:05.343Z,36.60
2018-04-14T17:20:31.700Z,38.70
2018-04-14T17:22:58.770Z,36.07
2018-04-14T17:25:25.142Z,38.17
2018-04-14T17:27:51.462Z,38.20
2018-04-14T17:30:17.833Z,37.73
2018-04-14T17:32:44.153Z,36.60
2018-04-14T17:35:10.518Z,32.80
2018-04-14T17:37:37.668Z,33.67
2018-04-14T17:40:04.734Z,33.07
2018-04-14T17:42:31.124Z,33.67
2018-04-14T17:44:58.270Z,32.07
2018-04-14T17:47:25.345Z,32.13
2018-04-14T17:49:52.411Z,30.93
2018-04-14T17:52:18.795Z,31.23
2018-04-14T17:54:45.156Z,27.20
2018-04-14T17:57:12.221Z,27.80
2018-04-14T17:59:38.585Z,31.73
2018-04-14T18:02:04.994Z,30.83
2018-04-14T18:04:31.327Z,33.00
2018-04-14T18:06:57.730Z,31.30
2018-04-14T18:09:24.876Z,30.33
2018-04-14T18:11:51.241Z,33.07
2018-04-14T18:14:17.574Z,30.60
2018-04-14T18:16:43.946Z,33.77
2018-04-14T18:19:11.045Z,34.93
2018-04-14T18:21:37.424Z,33.73
2018-04-14T18:24:05.295Z,32.10
2018-04-14T18:26:31.617Z,36.20
2018-04-14T18:28:57.923Z,32.70
2018-04-14T18:31:24.341Z,35.10
2018-04-14T18:33:50.687Z,35.90
2018-04-14T18:36:17.071Z,34.53
2018-04-14T18:38:43.436Z,35.73
2018-04-14T18:41:09.757Z,35.33
2018-04-14T18:43:36.135Z,37.87
2018-04-14T18:46:02.518Z,36.30
2018-04-14T18:48:28.979Z,35.33
2018-04-14T18:50:55.398Z,35.57
2018-04-14T18:53:21.728Z,38.50
2018-04-14T18:55:48.275Z,34.60
2018-04-14T18:58:14.737Z,34.37
2018-04-14T19:00:41.871Z,35.40
2018-04-14T19:03:09.681Z,33.30
2018-04-14T19:05:36.062Z,37.50
2018-04-14T19:08:02.391Z,34.20
2018-04-14T19:10:28.771Z,39.20
2018-04-14T19:12:55.123Z,37.03
2018-04-14T19:15:21.541Z,36.53
2018-04-14T19:17:47.903Z,37.43
2018-04-14T19:20:14.365Z,39.17
2018-04-14T19:22:40.730Z,37.93
2018-04-14T19:25:07.088Z,38.87
2018-04-14T19:27:33.417Z,38.83
2018-04-14T19:29:59.821Z,36.27
2018-04-14T19:32:26.208Z,37.63
2018-04-14T19:34:52.595Z,40.20
2018-04-14T19:37:18.994Z,43.27
2018-04-14T19:39:47.131Z,41.87
2018-04-14T19:42:13.533Z,44.87
2018-04-14T19:44:39.894Z,43.20
2018-04-14T19:47:06.264Z,42.60
2018-04-14T19:49:33.373Z,42.50
2018-04-14T19:51:59.742Z,52.37
2018-04-14T19:54:26.836Z,50.47
2018-04-14T19:56:53.213Z,50.67
2018-04-14T19:59:19.588Z,50.40
2018-04-14T20:01:45.917Z,50.60
2018-04-14T20:04:12.298Z,50.40
2018-04-14T20:06:38.647Z,51.27
2018-04-14T20:09:05.730Z,47.80
2018-04-14T20:11:32.839Z,47.00
2018-04-14T20:13:59.939Z,50.07
2018-04-14T20:16:26.270Z,42.40
2018-04-14T20:18:52.625Z,43.40
2018-04-14T20:21:19.758Z,43.50
2018-04-14T20:23:46.098Z,42.63
2018-04-14T20:26:12.416Z,44.57
2018-04-14T20:28:38.794Z,44.50
2018-04-14T20:31:05.925Z,47.10
2018-04-14T20:33:32.238Z,46.43
2018-04-14T20:35:58.617Z,45.63
2018-04-14T20:38:25.038Z,48.43
2018-04-14T20:40:51.512Z,46.20
2018-04-14T20:43:17.849Z,45.00
2018-04-14T20:45:44.206Z,47.53
2018-04-14T20:48:10.575Z,44.73
2018-04-14T20:50:36.894Z,44.93
2018-04-14T20:53:04.043Z,45.50
2018-04-14T20:55:31.126Z,47.80
2018-04-14T20:57:57.467Z,50.63
2018-04-14T21:00:23.859Z,46.70
2018-04-14T21:02:50.182Z,49.67
2018-04-14T21:05:17.291Z,53.70
2018-04-14T21:07:43.612Z,50.57
2018-04-14T21:10:09.994Z,55.73
2018-04-14T21:12:37.041Z,53.63
2018-04-14T21:15:04.161Z,56.90
2018-04-14T21:17:31.236Z,56.77
2018-04-14T21:19:58.329Z,55.80
2018-04-14T21:22:24.672Z,58.67
2018-04-14T21:24:50.998Z,59.80
2018-04-14T21:27:17.378Z,56.30
2018-04-14T21:29:44.480Z,60.40
2018-04-14T21:32:10.803Z,56.23
2018-04-14T21:34:37.193Z,57.40
2018-04-14T21:37:03.543Z,57.43
2018-04-14T21:39:29.925Z,61.43
2018-04-14T21:41:57.059Z,60.50
2018-04-14T21:44:23.377Z,56.43
2018-04-14T21:46:49.759Z,63.53
2018-04-14T21:49:16.819Z,61.80
2018-04-14T21:51:43.213Z,64.37
2018-04-14T21:54:09.566Z,60.63
2018-04-14T21:56:36.674Z,64.30
2018-04-14T21:59:03.009Z,59.93
2018-04-14T22:01:29.382Z,65.73
2018-04-14T22:03:55.762Z,60.33
2018-04-14T22:06:22.090Z,60.47
2018-04-14T22:08:48.474Z,66.30
2018-04-14T22:11:14.852Z,62.97
2018-04-14T22:13:41.226Z,68.13
2018-04-14T22:16:08.338Z,61.10
2018-04-14T22:18:34.678Z,61.90
2018-04-14T22:21:01.054Z,61.30
2018-04-14T22:23:27.445Z,65.00
2018-04-14T22:25:54.529Z,62.77
2018-04-14T22:28:21.626Z,62.20
2018-04-14T22:30:47.954Z,65.03
2018-04-14T22:33:14.329Z,67.87
2018-04-14T22:35:41.397Z,65.20
2018-04-14T22:38:07.795Z,66.43
2018-04-14T22:40:34.912Z,67.03
2018-04-14T22:43:01.274Z,64.00
2018-04-14T22:45:28.349Z,74.67
2018-04-14T22:47:54.730Z,70.33
2018-04-14T22:50:21.055Z,75.67
2018-04-14T22:52:47.361Z,71.60
2018-04-14T22:55:13.732Z,70.20
2018-04-14T22:57:40.816Z,63.53
2018-04-14T23:00:07.368Z,60.90
2018-04-14T23:02:35.145Z,63.00
2018-04-14T23:05:01.494Z,60.80
2018-04-14T23:07:27.893Z,66.07
2018-04-14T23:09:54.269Z,60.47
2018-04-14T23:12:21.389Z,56.80
2018-04-14T23:14:47.693Z,60.67
2018-04-14T23:17:14.078Z,57.40
2018-04-14T23:19:40.398Z,57.93
2018-04-14T23:22:06.768Z,55.20
2018-04-14T23:24:33.111Z,61.37
2018-04-14T23:26:59.447Z,61.57
2018-04-14T23:29:25.839Z,57.00
2018-04-14T23:31:52.898Z,58.80
2018-04-14T23:34:20.030Z,56.73
2018-04-14T23:36:47.115Z,59.50
2018-04-14T23:39:13.478Z,52.13
2018-04-14T23:41:39.811Z,57.13
2018-04-14T23:44:06.209Z,54.47
2018-04-14T23:46:32.531Z,58.63
2018-04-14T23:48:58.901Z,60.17
2018-04-14T23:51:25.527Z,54.80
2018-04-14T23:53:51.946Z,60.17
2018-04-14T23:56:18.311Z,58.10
2018-04-14T23:58:44.633Z,62.73
